Time;durP1;ratioP1;P1;durP2;ratioP2;P2;SDS_P1;SDS_P2;PMS_P1;PMS_P2;Temp;Humidity;BMP_temperature;BMP_pressure;BME280_temperature;BME280_humidity;BME280_pressure;Samples;Min_cycle;Max_cycle;Signal;HPM_P1;HPM_P2
2024/01/14 00:01:22;;;;;;;7.25;5.40;;;;;;;;;;5053727;28;20225;-63
2024/01/14 00:03:49;;;;;;;7.43;5.60;;;;;;;;;;5053984;28;20194;-62
2024/01/14 00:06:16;;;;;;;7.40;5.70;;;;;;;;;;5054136;28;20280;-63
2024/01/14 00:08:44;;;;;;;8.25;5.70;;;;;;;;;;5053814;28;20293;-63
2024/01/14 00:11:11;;;;;;;6.85;4.72;;;;;;;;;;5053759;28;20661;-63
2024/01/14 00:13:38;;;;;;;8.32;6.65;;;;;;;;;;5053668;28;20645;-63
2024/01/14 00:16:05;;;;;;;7.72;5.90;;;;;;;;;;5053837;28;20200;-63
2024/01/14 00:18:32;;;;;;;9.57;6.78;;;;;;;;;;5053718;28;20273;-63
2024/01/14 00:20:59;;;;;;;9.15;6.97;;;;;;;;;;5053503;28;20225;-63
2024/01/14 00:23:26;;;;;;;8.30;6.72;;;;;;;;;;5053546;28;20186;-62
2024/01/14 00:25:54;;;;;;;8.60;6.35;;;;;;;;;;5053429;28;20280;-63
2024/01/14 00:28:21;;;;;;;10.95;7.00;;;;;;;;;;5053389;28;20646;-63
2024/01/14 00:30:48;;;;;;;10.27;6.45;;;;;;;;;;5053526;28;20190;-63
2024/01/14 00:33:15;;;;;;;9.02;6.35;;;;;;;;;;5053541;28;20251;-63
2024/01/14 00:35:42;;;;;;;6.90;5.25;;;;;;;;;;5053372;28;20190;-63
2024/01/14 00:38:10;;;;;;;8.65;6.35;;;;;;;;;;5053294;28;20189;-63
2024/01/14 00:40:37;;;;;;;6.82;5.47;;;;;;;;;;5053187;28;20224;-63
2024/01/14 00:43:06;;;;;;;7.85;5.82;;;;;;;;;;5053416;28;20201;-63
2024/01/14 00:45:32;;;;;;;6.43;5.30;;;;;;;;;;5053342;28;20600;-63
2024/01/14 00:47:59;;;;;;;8.50;5.93;;;;;;;;;;5053472;28;20192;-63
2024/01/14 00:50:26;;;;;;;9.82;5.95;;;;;;;;;;5053174;28;20276;-63
2024/01/14 00:52:53;;;;;;;9.85;6.13;;;;;;;;;;5053078;28;20190;-62
2024/01/14 00:55:20;;;;;;;8.25;5.85;;;;;;;;;;5053004;28;20194;-62
2024/01/14 00:57:47;;;;;;;8.40;6.00;;;;;;;;;;5053247;28;20200;-62
2024/01/14 01:00:17;;;;;;;6.40;5.25;;;;;;;;;;5052824;28;20206;-63
2024/01/14 01:02:44;;;;;;;11.27;6.13;;;;;;;;;;5052998;28;20255;-62
2024/01/14 01:05:11;;;;;;;7.35;4.95;;;;;;;;;;5052940;28;20189;-62
2024/01/14 01:07:38;;;;;;;6.85;4.90;;;;;;;;;;5052861;28;20272;-62
2024/01/14 01:10:05;;;;;;;5.65;5.15;;;;;;;;;;5052981;28;20598;-62
2024/01/14 01:12:32;;;;;;;6.05;4.43;;;;;;;;;;5053004;28;20589;-62
2024/01/14 01:15:00;;;;;;;5.82;4.78;;;;;;;;;;5052955;28;20192;-62
2024/01/14 01:17:28;;;;;;;6.10;4.28;;;;;;;;;;5052857;28;20193;-63
2024/01/14 01:19:55;;;;;;;6.80;5.63;;;;;;;;;;5052535;28;20217;-63
2024/01/14 01:22:22;;;;;;;6.45;4.80;;;;;;;;;;5052874;28;20277;-62
2024/01/14 01:24:49;;;;;;;5.53;4.93;;;;;;;;;;5052883;28;20281;-62
2024/01/14 01:27:16;;;;;;;8.43;4.10;;;;;;;;;;5052828;28;20194;-62
2024/01/14 01:29:43;;;;;;;7.13;3.92;;;;;;;;;;5052564;28;20642;-63
2024/01/14 01:32:10;;;;;;;4.15;3.22;;;;;;;;;;5053154;28;20196;-63
2024/01/14 01:34:39;;;;;;;4.93;2.63;;;;;;;;;;5052622;28;20277;-63
2024/01/14 01:37:06;;;;;;;4.32;3.05;;;;;;;;;;5052579;28;20189;-63
2024/01/14 01:39:33;;;;;;;3.05;2.60;;;;;;;;;;5052711;28;20196;-63
2024/01/14 01:42:00;;;;;;;3.78;2.50;;;;;;;;;;5052617;28;20220;-63
2024/01/14 01:44:27;;;;;;;4.88;2.65;;;;;;;;;;5052434;28;20653;-63
2024/01/14 01:46:55;;;;;;;1.85;1.75;;;;;;;;;;5052514;28;20276;-63
2024/01/14 01:49:22;;;;;;;1.60;1.50;;;;;;;;;;5052442;28;20221;-63
2024/01/14 01:51:52;;;;;;;2.05;1.92;;;;;;;;;;5052718;28;20197;-63
2024/01/14 01:54:20;;;;;;;3.22;2.33;;;;;;;;;;5052322;28;20672;-63
2024/01/14 01:56:47;;;;;;;2.10;1.90;;;;;;;;;;5052590;28;20218;-62
2024/01/14 01:59:14;;;;;;;2.60;2.05;;;;;;;;;;5052365;28;20208;-63
2024/01/14 02:01:41;;;;;;;2.70;2.42;;;;;;;;;;5052266;28;20217;-63
2024/01/14 02:04:08;;;;;;;2.05;1.95;;;;;;;;;;5052622;28;20190;-63
2024/01/14 02:06:36;;;;;;;2.20;2.00;;;;;;;;;;5052473;28;20610;-63
2024/01/14 02:09:07;;;;;;;2.67;2.47;;;;;;;;;;5052612;28;20281;-63
2024/01/14 02:11:34;;;;;;;4.90;2.95;;;;;;;;;;5052386;28;20186;-63
2024/01/14 02:14:01;;;;;;;2.30;2.05;;;;;;;;;;5052290;28;20190;-63
2024/01/14 02:16:28;;;;;;;2.40;2.10;;;;;;;;;;5052146;28;20557;-63
2024/01/14 02:18:55;;;;;;;6.57;2.83;;;;;;;;;;5052415;28;20281;-63
2024/01/14 02:21:24;;;;;;;2.25;2.03;;;;;;;;;;5052187;28;20708;-63
2024/01/14 02:23:54;;;;;;;2.58;2.38;;;;;;;;;;5054907;28;20216;-63
2024/01/14 02:26:22;;;;;;;7.07;3.28;;;;;;;;;;5055800;28;20726;-63
2024/01/14 02:28:50;;;;;;;3.40;3.10;;;;;;;;;;5055638;28;20280;-63
2024/01/14 02:31:17;;;;;;;3.20;3.00;;;;;;;;;;5055901;28;20281;-63
2024/01/14 02:33:44;;;;;;;4.45;3.22;;;;;;;;;;5055770;28;20273;-62
2024/01/14 02:36:11;;;;;;;5.45;3.85;;;;;;;;;;5055754;28;20273;-62
2024/01/14 02:38:38;;;;;;;3.40;3.10;;;;;;;;;;5055617;28;20277;-62
2024/01/14 02:41:05;;;;;;;5.15;4.32;;;;;;;;;;5055415;28;20217;-62
2024/01/14 02:43:33;;;;;;;3.58;3.20;;;;;;;;;;5055436;28;20280;-63
2024/01/14 02:46:00;;;;;;;3.55;3.25;;;;;;;;;;5055598;28;20282;-62
2024/01/14 02:48:27;;;;;;;3.55;2.90;;;;;;;;;;5055607;28;20190;-62
2024/01/14 02:50:54;;;;;;;4.85;3.40;;;;;;;;;;5055423;28;20616;-63
2024/01/14 02:53:21;;;;;;;2.90;2.60;;;;;;;;;;5055399;28;20285;-62
2024/01/14 02:55:48;;;;;;;3.00;2.67;;;;;;;;;;5055276;28;20276;-62
2024/01/14 02:58:15;;;;;;;7.05;3.20;;;;;;;;;;5055086;28;20193;-63
2024/01/14 03:00:43;;;;;;;2.72;2.45;;;;;;;;;;5055264;28;20649;-62
2024/01/14 03:03:10;;;;;;;2.33;2.13;;;;;;;;;;5055222;28;20221;-63
2024/01/14 03:05:37;;;;;;;4.35;1.90;;;;;;;;;;5055133;28;20276;-63
2024/01/14 03:08:04;;;;;;;4.35;2.00;;;;;;;;;;5055032;28;20273;-62
2024/01/14 03:10:31;;;;;;;3.47;2.22;;;;;;;;;;5054866;28;20272;-63
2024/01/14 03:12:58;;;;;;;4.82;1.90;;;;;;;;;;5055175;28;20728;-63
2024/01/14 03:15:25;;;;;;;4.38;1.80;;;;;;;;;;5054959;28;20276;-63
2024/01/14 03:17:53;;;;;;;4.18;1.77;;;;;;;;;;5054958;28;20273;-62
2024/01/14 03:20:22;;;;;;;2.72;2.25;;;;;;;;;;5054432;28;20222;-63
2024/01/14 03:22:49;;;;;;;4.63;2.00;;;;;;;;;;5054787;28;20668;-62
2024/01/14 03:25:16;;;;;;;7.38;2.10;;;;;;;;;;5054650;28;20200;-63
2024/01/14 03:27:44;;;;;;;3.17;1.60;;;;;;;;;;5054795;28;20196;-62
2024/01/14 03:30:11;;;;;;;6.30;2.30;;;;;;;;;;5054729;28;20628;-62
2024/01/14 03:32:38;;;;;;;9.90;2.20;;;;;;;;;;5054587;28;20277;-63
2024/01/14 03:35:07;;;;;;;3.58;2.03;;;;;;;;;;5053434;28;20197;-62
2024/01/14 03:37:34;;;;;;;2.60;2.13;;;;;;;;;;5054429;28;20277;-62
2024/01/14 03:40:02;;;;;;;3.60;1.55;;;;;;;;;;5054575;28;20607;-62
2024/01/14 03:42:29;;;;;;;5.45;2.22;;;;;;;;;;5054493;28;20221;-62
2024/01/14 03:44:57;;;;;;;2.45;1.27;;;;;;;;;;5054561;28;20281;-62
2024/01/14 03:47:24;;;;;;;7.97;2.35;;;;;;;;;;5054282;28;20281;-62
2024/01/14 03:49:51;;;;;;;2.28;1.30;;;;;;;;;;5054195;28;20196;-62
2024/01/14 03:52:19;;;;;;;2.75;2.45;;;;;;;;;;5054133;28;20190;-62
2024/01/14 03:54:46;;;;;;;5.20;1.70;;;;;;;;;;5054320;28;20263;-62
2024/01/14 03:57:13;;;;;;;3.30;1.85;;;;;;;;;;5054193;28;20617;-62
2024/01/14 03:59:40;;;;;;;7.60;2.10;;;;;;;;;;5054019;28;20194;-63
2024/01/14 04:02:07;;;;;;;2.35;1.33;;;;;;;;;;5053977;28;20312;-62
2024/01/14 04:04:34;;;;;;;6.50;1.80;;;;;;;;;;5053975;28;20186;-62
2024/01/14 04:07:01;;;;;;;5.18;2.05;;;;;;;;;;5053819;28;20284;-62
2024/01/14 04:09:30;;;;;;;3.92;1.88;;;;;;;;;;5053997;28;20186;-62
2024/01/14 04:11:57;;;;;;;2.72;1.20;;;;;;;;;;5053959;28;20226;-62
2024/01/14 04:14:24;;;;;;;4.13;1.50;;;;;;;;;;5053800;28;20189;-62
2024/01/14 04:16:50;;;;;;;3.67;1.30;;;;;;;;;;5053784;28;20273;-62
2024/01/14 04:19:17;;;;;;;3.67;1.13;;;;;;;;;;5053773;28;20190;-62
2024/01/14 04:21:44;;;;;;;6.93;2.05;;;;;;;;;;5053348;28;20317;-62
2024/01/14 04:24:11;;;;;;;3.20;1.45;;;;;;;;;;5053712;28;20196;-62
2024/01/14 04:26:39;;;;;;;5.70;1.20;;;;;;;;;;5053608;28;20218;-62
2024/01/14 04:29:06;;;;;;;4.35;1.63;;;;;;;;;;5053473;28;20196;-63
2024/01/14 04:31:33;;;;;;;3.70;1.55;;;;;;;;;;5053411;28;20557;-62
2024/01/14 04:34:03;;;;;;;2.65;1.20;;;;;;;;;;5053343;28;20186;-62
2024/01/14 04:36:30;;;;;;;7.55;1.98;;;;;;;;;;5053664;28;20185;-63
2024/01/14 04:38:57;;;;;;;10.82;1.63;;;;;;;;;;5053383;28;20618;-62
2024/01/14 04:41:23;;;;;;;5.13;1.55;;;;;;;;;;5053118;28;20695;-63
2024/01/14 04:43:52;;;;;;;3.10;1.75;;;;;;;;;;5053202;28;20281;-62
2024/01/14 04:46:19;;;;;;;5.07;1.15;;;;;;;;;;5053377;28;20190;-62
2024/01/14 04:48:46;;;;;;;3.53;1.45;;;;;;;;;;5053277;28;20217;-62
2024/01/14 04:51:13;;;;;;;3.38;1.55;;;;;;;;;;5053272;28;20713;-62
2024/01/14 04:53:40;;;;;;;4.75;1.23;;;;;;;;;;5053184;28;20212;-62
2024/01/14 04:56:07;;;;;;;7.43;2.17;;;;;;;;;;5053074;28;20276;-62
2024/01/14 04:58:34;;;;;;;3.80;1.40;;;;;;;;;;5053077;28;20281;-62
2024/01/14 05:01:03;;;;;;;9.50;2.15;;;;;;;;;;5052842;28;20300;-62
2024/01/14 05:03:30;;;;;;;3.97;1.58;;;;;;;;;;5053117;28;20197;-62
2024/01/14 05:05:57;;;;;;;4.15;1.33;;;;;;;;;;5052987;28;20225;-62
2024/01/14 05:08:24;;;;;;;5.15;1.60;;;;;;;;;;5052968;28;20351;-62
2024/01/14 05:10:51;;;;;;;7.80;1.83;;;;;;;;;;5052875;28;20192;-62
2024/01/14 05:13:18;;;;;;;7.20;1.70;;;;;;;;;;5052755;28;20244;-62
2024/01/14 05:15:45;;;;;;;4.10;1.58;;;;;;;;;;5052822;28;20200;-62
2024/01/14 05:18:13;;;;;;;4.35;1.45;;;;;;;;;;5052730;28;20713;-62
2024/01/14 05:20:40;;;;;;;6.65;2.20;;;;;;;;;;5052707;28;20304;-63
2024/01/14 05:23:08;;;;;;;7.60;1.52;;;;;;;;;;5052695;28;20225;-63
2024/01/14 05:25:35;;;;;;;10.50;1.80;;;;;;;;;;5052798;28;20194;-65
2024/01/14 05:28:02;;;;;;;8.52;1.90;;;;;;;;;;5052616;28;20289;-63
2024/01/14 05:30:28;;;;;;;4.38;1.77;;;;;;;;;;5052837;28;20190;-62
2024/01/14 05:32:55;;;;;;;4.82;1.60;;;;;;;;;;5052811;28;20285;-62
2024/01/14 05:35:24;;;;;;;4.80;1.50;;;;;;;;;;5052667;28;20669;-62
2024/01/14 05:37:51;;;;;;;5.80;1.50;;;;;;;;;;5052733;28;20280;-62
2024/01/14 05:40:19;;;;;;;7.38;2.65;;;;;;;;;;5052622;28;20281;-62
2024/01/14 05:42:46;;;;;;;6.57;1.50;;;;;;;;;;5052405;28;20221;-62
2024/01/14 05:45:13;;;;;;;6.25;2.25;;;;;;;;;;5052801;28;20281;-62
2024/01/14 05:47:40;;;;;;;7.13;2.08;;;;;;;;;;5052753;28;20186;-62
2024/01/14 05:50:08;;;;;;;2.90;1.35;;;;;;;;;;5052520;28;20703;-62
2024/01/14 05:52:37;;;;;;;6.95;1.90;;;;;;;;;;5052591;28;20634;-62
2024/01/14 05:55:04;;;;;;;2.83;1.60;;;;;;;;;;5052379;28;20196;-62
2024/01/14 05:57:31;;;;;;;4.57;1.33;;;;;;;;;;5053437;28;20308;-62
2024/01/14 05:59:58;;;;;;;4.85;1.63;;;;;;;;;;5056451;28;20186;-62
2024/01/14 06:02:25;;;;;;;4.63;1.30;;;;;;;;;;5056290;28;20309;-62
2024/01/14 06:04:52;;;;;;;7.68;2.10;;;;;;;;;;5056196;28;20190;-62
2024/01/14 06:07:19;;;;;;;6.82;1.95;;;;;;;;;;5056239;28;20198;-62
2024/01/14 06:09:48;;;;;;;8.95;1.63;;;;;;;;;;5056037;28;20190;-62
2024/01/14 06:12:16;;;;;;;6.10;1.70;;;;;;;;;;5056267;28;20280;-62
2024/01/14 06:14:43;;;;;;;5.22;1.90;;;;;;;;;;5056170;28;20222;-62
2024/01/14 06:17:10;;;;;;;8.10;2.03;;;;;;;;;;5056054;28;20593;-62
2024/01/14 06:19:36;;;;;;;9.50;2.38;;;;;;;;;;5055991;28;20277;-62
2024/01/14 06:22:04;;;;;;;7.18;2.00;;;;;;;;;;5055685;28;20608;-62
2024/01/14 06:24:31;;;;;;;6.68;2.03;;;;;;;;;;5055775;28;20185;-62
2024/01/14 06:26:59;;;;;;;6.45;1.63;;;;;;;;;;5055949;28;20225;-62
2024/01/14 06:29:26;;;;;;;9.57;3.00;;;;;;;;;;5055930;28;20281;-62
2024/01/14 06:31:53;;;;;;;7.82;2.45;;;;;;;;;;5055788;28;20190;-62
2024/01/14 06:34:20;;;;;;;6.90;1.55;;;;;;;;;;5055553;28;20715;-62
2024/01/14 06:36:47;;;;;;;4.10;1.83;;;;;;;;;;5055524;28;20189;-62
2024/01/14 06:39:14;;;;;;;5.47;2.00;;;;;;;;;;5055795;28;20196;-62
2024/01/14 06:41:41;;;;;;;6.50;2.10;;;;;;;;;;5055601;28;20249;-62
2024/01/14 06:44:09;;;;;;;6.82;2.40;;;;;;;;;;5055602;28;20713;-62
2024/01/14 06:46:36;;;;;;;7.90;1.75;;;;;;;;;;5055447;28;20285;-62
2024/01/14 06:49:03;;;;;;;2.75;1.70;;;;;;;;;;5055421;28;20196;-62
2024/01/14 06:51:30;;;;;;;7.45;1.27;;;;;;;;;;5055298;28;20200;-62
2024/01/14 06:53:57;;;;;;;5.65;1.10;;;;;;;;;;5055436;28;20273;-62
2024/01/14 06:56:24;;;;;;;3.88;1.42;;;;;;;;;;5055564;28;20194;-62
2024/01/14 06:58:52;;;;;;;5.55;1.42;;;;;;;;;;5055104;28;20249;-62
2024/01/14 07:01:20;;;;;;;4.85;1.80;;;;;;;;;;5055214;28;20194;-62
2024/01/14 07:03:47;;;;;;;4.63;1.50;;;;;;;;;;5055081;28;20265;-63
2024/01/14 07:06:14;;;;;;;4.63;1.52;;;;;;;;;;5055316;28;20277;-62
2024/01/14 07:08:42;;;;;;;4.07;1.77;;;;;;;;;;5054752;28;20194;-62
2024/01/14 07:11:09;;;;;;;4.32;1.27;;;;;;;;;;5054901;28;20190;-62
2024/01/14 07:13:36;;;;;;;5.68;1.77;;;;;;;;;;5054928;28;20190;-62
2024/01/14 07:16:03;;;;;;;3.50;2.10;;;;;;;;;;5054958;28;20277;-62
2024/01/14 07:18:31;;;;;;;2.65;1.35;;;;;;;;;;5054787;28;20709;-62
2024/01/14 07:20:58;;;;;;;3.38;1.42;;;;;;;;;;5054670;28;20214;-62
2024/01/14 07:23:25;;;;;;;4.43;1.63;;;;;;;;;;5054830;28;20573;-62
2024/01/14 07:25:52;;;;;;;11.18;1.60;;;;;;;;;;5054868;28;20601;-62
2024/01/14 07:28:19;;;;;;;6.10;2.08;;;;;;;;;;5054885;28;20193;-62
2024/01/14 07:30:46;;;;;;;1.92;1.30;;;;;;;;;;5054596;28;20185;-62
2024/01/14 07:33:13;;;;;;;13.98;2.65;;;;;;;;;;5054441;28;20264;-62
2024/01/14 07:35:41;;;;;;;1.45;1.35;;;;;;;;;;5054695;28;20190;-62
2024/01/14 07:38:08;;;;;;;3.22;2.60;;;;;;;;;;5054544;28;20632;-62
2024/01/14 07:40:35;;;;;;;10.82;2.95;;;;;;;;;;5054504;28;20276;-62
2024/01/14 07:43:02;;;;;;;7.85;1.50;;;;;;;;;;5054411;28;20209;-62
2024/01/14 07:45:29;;;;;;;9.18;1.60;;;;;;;;;;5054222;28;20185;-62
2024/01/14 07:47:56;;;;;;;5.28;1.52;;;;;;;;;;5054489;28;20276;-62
2024/01/14 07:50:23;;;;;;;4.22;1.90;;;;;;;;;;5054603;28;20256;-62
2024/01/14 07:52:51;;;;;;;4.60;1.73;;;;;;;;;;5054279;28;20186;-62
2024/01/14 07:55:18;;;;;;;5.40;1.48;;;;;;;;;;5054165;28;20190;-62
2024/01/14 07:57:45;;;;;;;6.18;1.83;;;;;;;;;;5054091;28;20186;-62
2024/01/14 08:00:13;;;;;;;4.53;1.30;;;;;;;;;;5054016;28;20193;-62
2024/01/14 08:02:40;;;;;;;8.05;1.60;;;;;;;;;;5054150;28;20569;-62
2024/01/14 08:05:08;;;;;;;6.95;1.75;;;;;;;;;;5054113;28;20668;-62
2024/01/14 08:07:35;;;;;;;7.25;1.40;;;;;;;;;;5053975;28;20237;-62
2024/01/14 08:10:04;;;;;;;5.80;2.22;;;;;;;;;;5054003;28;20285;-62
2024/01/14 08:12:31;;;;;;;4.75;2.80;;;;;;;;;;5053689;28;20602;-62
2024/01/14 08:14:58;;;;;;;5.97;2.15;;;;;;;;;;5053591;28;20602;-62
2024/01/14 08:17:26;;;;;;;6.88;2.20;;;;;;;;;;5053918;28;20382;-62
2024/01/14 08:19:53;;;;;;;9.55;1.98;;;;;;;;;;5053198;28;20224;-62
2024/01/14 08:22:19;;;;;;;2.85;1.63;;;;;;;;;;5053445;28;20236;-62
2024/01/14 08:24:46;;;;;;;6.53;1.70;;;;;;;;;;5053594;28;20190;-62
2024/01/14 08:27:16;;;;;;;6.03;1.48;;;;;;;;;;5053368;28;20189;-62
2024/01/14 08:29:43;;;;;;;4.50;1.85;;;;;;;;;;5053752;28;20285;-62
2024/01/14 08:32:10;;;;;;;8.57;1.90;;;;;;;;;;5053350;28;20671;-62
2024/01/14 08:34:37;;;;;;;8.13;1.77;;;;;;;;;;5053452;28;20194;-62
2024/01/14 08:37:04;;;;;;;6.57;2.20;;;;;;;;;;5053215;28;20196;-62
2024/01/14 08:39:31;;;;;;;3.65;1.63;;;;;;;;;;5053324;28;20217;-62
2024/01/14 08:41:58;;;;;;;6.15;2.50;;;;;;;;;;5053306;28;20190;-62
2024/01/14 08:44:26;;;;;;;2.67;1.67;;;;;;;;;;5053367;28;20194;-62
2024/01/14 08:46:54;;;;;;;4.07;1.40;;;;;;;;;;5053368;28;20606;-62
2024/01/14 08:49:21;;;;;;;2.72;1.63;;;;;;;;;;5053194;28;20194;-62
2024/01/14 08:51:48;;;;;;;3.70;1.45;;;;;;;;;;5053139;28;20281;-62
2024/01/14 08:54:15;;;;;;;10.40;3.15;;;;;;;;;;5053057;28;20549;-62
2024/01/14 08:56:42;;;;;;;4.45;3.38;;;;;;;;;;5053211;28;20186;-62
2024/01/14 08:59:09;;;;;;;6.13;1.45;;;;;;;;;;5053115;28;20194;-62
2024/01/14 09:01:37;;;;;;;3.45;1.88;;;;;;;;;;5052977;28;20193;-62
2024/01/14 09:04:04;;;;;;;5.15;1.30;;;;;;;;;;5052912;28;20224;-62
2024/01/14 09:06:31;;;;;;;5.93;1.95;;;;;;;;;;5052973;28;20201;-62
2024/01/14 09:08:58;;;;;;;5.13;2.03;;;;;;;;;;5052828;28;20205;-62
2024/01/14 09:11:25;;;;;;;4.78;1.90;;;;;;;;;;5053037;28;20616;-62
2024/01/14 09:13:52;;;;;;;3.55;1.30;;;;;;;;;;5052942;28;20193;-62
2024/01/14 09:16:19;;;;;;;4.95;1.65;;;;;;;;;;5052826;28;20200;-62
2024/01/14 09:18:47;;;;;;;2.22;1.45;;;;;;;;;;5052949;28;20186;-62
2024/01/14 09:21:14;;;;;;;2.88;1.15;;;;;;;;;;5052568;28;20279;-62
2024/01/14 09:23:41;;;;;;;2.97;2.25;;;;;;;;;;5052579;28;20308;-62
2024/01/14 09:26:08;;;;;;;2.35;1.50;;;;;;;;;;5052655;28;20190;-62
2024/01/14 09:28:36;;;;;;;2.53;1.45;;;;;;;;;;5052839;28;20281;-62
2024/01/14 09:31:03;;;;;;;5.90;1.85;;;;;;;;;;5052748;28;20186;-63
2024/01/14 09:33:30;;;;;;;3.45;1.55;;;;;;;;;;5055187;28;20615;-62
2024/01/14 09:36:06;;;;;;;1.33;1.23;;;;;;;;;;5056714;28;20193;-62
2024/01/14 09:38:33;;;;;;;5.55;3.17;;;;;;;;;;5057063;28;20204;-62
2024/01/14 09:41:04;;;;;;;4.50;2.58;;;;;;;;;;5056782;28;20272;-62
2024/01/14 09:43:34;;;;;;;5.30;2.60;;;;;;;;;;5056521;28;20228;-62
2024/01/14 09:46:01;;;;;;;2.42;1.30;;;;;;;;;;5056630;28;20280;-62
2024/01/14 09:48:29;;;;;;;7.35;1.73;;;;;;;;;;5056451;28;20527;-63
2024/01/14 09:50:56;;;;;;;7.88;1.70;;;;;;;;;;5056709;28;20276;-62
2024/01/14 09:53:26;;;;;;;3.42;1.40;;;;;;;;;;5056535;28;20200;-62
2024/01/14 09:55:54;;;;;;;3.28;1.35;;;;;;;;;;5056571;28;20190;-62
2024/01/14 09:58:21;;;;;;;2.00;1.30;;;;;;;;;;5056453;28;20631;-63
2024/01/14 10:00:48;;;;;;;2.72;1.55;;;;;;;;;;5056250;28;20281;-62
2024/01/14 10:03:15;;;;;;;4.90;1.67;;;;;;;;;;5056119;28;20316;-62
2024/01/14 10:05:42;;;;;;;5.45;1.50;;;;;;;;;;5056666;28;20196;-62
2024/01/14 10:08:09;;;;;;;7.10;1.85;;;;;;;;;;5056150;28;20281;-62
2024/01/14 10:10:38;;;;;;;5.80;1.75;;;;;;;;;;5056110;28;20281;-62
2024/01/14 10:13:06;;;;;;;2.38;1.38;;;;;;;;;;5056134;28;20190;-62
2024/01/14 10:15:33;;;;;;;21.50;10.00;;;;;;;;;;5055961;28;20283;-62
2024/01/14 10:18:00;;;;;;;5.85;1.83;;;;;;;;;;5056275;28;20281;-62
2024/01/14 10:20:27;;;;;;;4.57;1.10;;;;;;;;;;5055895;28;20218;-62
2024/01/14 10:22:54;;;;;;;4.70;1.85;;;;;;;;;;5055980;28;20301;-62
2024/01/14 10:25:21;;;;;;;3.95;1.30;;;;;;;;;;5055858;28;20280;-62
2024/01/14 10:27:49;;;;;;;3.85;1.38;;;;;;;;;;5055699;28;20277;-62
2024/01/14 10:30:16;;;;;;;2.05;1.52;;;;;;;;;;5055589;28;20281;-62
2024/01/14 10:32:43;;;;;;;5.28;1.70;;;;;;;;;;5055801;28;20190;-62
2024/01/14 10:35:12;;;;;;;2.72;1.30;;;;;;;;;;5055723;28;20198;-62
2024/01/14 10:37:40;;;;;;;2.45;1.42;;;;;;;;;;5055607;28;20198;-62
2024/01/14 10:40:09;;;;;;;4.93;2.60;;;;;;;;;;5055544;28;20186;-62
2024/01/14 10:42:36;;;;;;;6.15;1.60;;;;;;;;;;5055406;28;20194;-62
2024/01/14 10:45:05;;;;;;;5.22;1.65;;;;;;;;;;5055114;28;20201;-63
2024/01/14 10:47:34;;;;;;;3.30;1.45;;;;;;;;;;5055630;28;20197;-62
2024/01/14 10:50:03;;;;;;;7.07;1.80;;;;;;;;;;5055447;28;20230;-62
2024/01/14 10:52:32;;;;;;;5.40;1.60;;;;;;;;;;5055315;28;20229;-62
2024/01/14 10:55:04;;;;;;;7.82;2.13;;;;;;;;;;5055263;28;20197;-62
2024/01/14 10:57:34;;;;;;;9.27;2.50;;;;;;;;;;5055401;28;20204;-62
2024/01/14 11:00:05;;;;;;;5.40;1.30;;;;;;;;;;5055657;28;20189;-62
2024/01/14 11:02:34;;;;;;;2.80;1.27;;;;;;;;;;5055192;28;20193;-62
2024/01/14 11:05:02;;;;;;;2.65;1.50;;;;;;;;;;5055071;28;20186;-62
2024/01/14 11:07:29;;;;;;;2.83;1.83;;;;;;;;;;5054933;28;20198;-63
2024/01/14 11:09:57;;;;;;;3.05;1.48;;;;;;;;;;5054958;28;20224;-63
2024/01/14 11:12:27;;;;;;;3.63;1.50;;;;;;;;;;5055158;28;20193;-63
2024/01/14 11:14:56;;;;;;;7.25;2.92;;;;;;;;;;5055246;28;20204;-62
2024/01/14 11:17:30;;;;;;;5.47;2.28;;;;;;;;;;5055246;28;20267;-62
2024/01/14 11:19:58;;;;;;;1.67;1.30;;;;;;;;;;5054661;28;20190;-62
2024/01/14 11:22:26;;;;;;;5.25;1.52;;;;;;;;;;5054703;28;20646;-62
2024/01/14 11:24:53;;;;;;;6.60;2.20;;;;;;;;;;5054797;28;20228;-62
2024/01/14 11:27:20;;;;;;;7.13;1.55;;;;;;;;;;5055010;28;20543;-62
2024/01/14 11:29:47;;;;;;;4.07;1.90;;;;;;;;;;5054745;28;20186;-62
2024/01/14 11:32:16;;;;;;;7.15;2.55;;;;;;;;;;5054611;28;20285;-62
2024/01/14 11:34:52;;;;;;;2.75;1.60;;;;;;;;;;5054441;28;20198;-62
2024/01/14 11:37:34;;;;;;;7.00;1.70;;;;;;;;;;5054687;28;20224;-62
2024/01/14 11:40:11;;;;;;;3.72;1.70;;;;;;;;;;5054210;28;20600;-62
2024/01/14 11:42:39;;;;;;;2.25;1.77;;;;;;;;;;5054456;28;20557;-62
2024/01/14 11:45:13;;;;;;;6.65;2.05;;;;;;;;;;5054191;28;20627;-62
2024/01/14 11:47:43;;;;;;;5.63;1.80;;;;;;;;;;5054430;28;20274;-62
2024/01/14 11:50:10;;;;;;;7.07;2.50;;;;;;;;;;5054125;28;20194;-62
2024/01/14 11:52:38;;;;;;;2.30;1.45;;;;;;;;;;5054255;28;20264;-63
2024/01/14 11:55:06;;;;;;;3.22;1.42;;;;;;;;;;5053225;28;20281;-62
2024/01/14 11:57:34;;;;;;;5.85;1.90;;;;;;;;;;5054120;28;20190;-62
2024/01/14 12:00:02;;;;;;;2.00;1.70;;;;;;;;;;5054002;28;20196;-62
2024/01/14 12:02:29;;;;;;;3.67;1.27;;;;;;;;;;5054146;28;20197;-62
2024/01/14 12:04:56;;;;;;;4.25;1.27;;;;;;;;;;5053991;28;20236;-62
2024/01/14 12:07:23;;;;;;;4.65;1.95;;;;;;;;;;5053847;28;20281;-62
2024/01/14 12:09:53;;;;;;;5.65;2.13;;;;;;;;;;5053770;28;20276;-62
2024/01/14 12:12:20;;;;;;;3.35;1.50;;;;;;;;;;5053606;28;20736;-62
2024/01/14 12:14:48;;;;;;;5.47;1.60;;;;;;;;;;5053846;28;20286;-62
2024/01/14 12:17:15;;;;;;;2.30;1.48;;;;;;;;;;5053888;28;20280;-62
2024/01/14 12:19:42;;;;;;;2.03;1.52;;;;;;;;;;5053882;28;20620;-62
2024/01/14 12:22:10;;;;;;;4.32;1.50;;;;;;;;;;5053413;28;20585;-62
2024/01/14 12:24:37;;;;;;;2.65;1.45;;;;;;;;;;5053460;28;20623;-62
2024/01/14 12:27:04;;;;;;;4.20;1.50;;;;;;;;;;5053620;28;20196;-62
2024/01/14 12:29:31;;;;;;;3.95;1.70;;;;;;;;;;5053738;28;20228;-62
2024/01/14 12:31:59;;;;;;;1.55;1.45;;;;;;;;;;5053593;28;20222;-62
2024/01/14 12:34:26;;;;;;;4.37;2.97;;;;;;;;;;5053385;28;20196;-62
2024/01/14 12:36:53;;;;;;;3.38;1.35;;;;;;;;;;5053322;28;20535;-62
2024/01/14 12:39:20;;;;;;;4.57;1.37;;;;;;;;;;5053295;28;20620;-62
2024/01/14 12:41:47;;;;;;;3.92;2.08;;;;;;;;;;5053138;28;20456;-62
2024/01/14 12:44:14;;;;;;;5.97;1.60;;;;;;;;;;5053053;28;20253;-63
2024/01/14 12:46:41;;;;;;;6.83;1.40;;;;;;;;;;5053244;28;20539;-62
2024/01/14 12:49:11;;;;;;;2.80;1.20;;;;;;;;;;5053045;28;20536;-62
2024/01/14 12:51:38;;;;;;;11.60;2.23;;;;;;;;;;5053102;28;20281;-62
2024/01/14 12:54:05;;;;;;;3.38;1.50;;;;;;;;;;5052907;28;20448;-62
2024/01/14 12:56:32;;;;;;;5.40;1.75;;;;;;;;;;5053165;28;20657;-62
2024/01/14 12:58:59;;;;;;;3.93;1.67;;;;;;;;;;5053236;28;20285;-62
2024/01/14 13:01:26;;;;;;;3.33;1.83;;;;;;;;;;5052955;28;20531;-62
2024/01/14 13:03:53;;;;;;;3.40;1.70;;;;;;;;;;5052941;28;20231;-62
2024/01/14 13:06:21;;;;;;;6.13;1.70;;;;;;;;;;5052788;28;20281;-62
2024/01/14 13:08:49;;;;;;;3.67;1.27;;;;;;;;;;5053245;28;20281;-63
2024/01/14 13:11:15;;;;;;;2.42;1.65;;;;;;;;;;5053274;28;20343;-62
2024/01/14 13:13:42;;;;;;;3.25;1.83;;;;;;;;;;5052730;28;20641;-63
2024/01/14 13:16:10;;;;;;;2.22;1.45;;;;;;;;;;5052929;28;20526;-63
2024/01/14 13:18:37;;;;;;;4.22;1.65;;;;;;;;;;5052829;28;20265;-63
2024/01/14 13:21:04;;;;;;;5.30;2.40;;;;;;;;;;5052557;28;20307;-62
2024/01/14 13:23:32;;;;;;;6.20;3.58;;;;;;;;;;5052589;28;20748;-62
2024/01/14 13:25:59;;;;;;;3.05;1.73;;;;;;;;;;5052884;28;20557;-62
2024/01/14 13:28:26;;;;;;;5.50;1.80;;;;;;;;;;5052727;28;20200;-63
2024/01/14 13:30:53;;;;;;;5.50;1.70;;;;;;;;;;5052849;28;20300;-62
2024/01/14 13:33:20;;;;;;;5.75;2.08;;;;;;;;;;5052659;28;20201;-63
2024/01/14 13:35:47;;;;;;;3.97;1.50;;;;;;;;;;5052546;28;20194;-62
2024/01/14 13:38:14;;;;;;;3.85;2.50;;;;;;;;;;5052661;28;20196;-62
2024/01/14 13:40:43;;;;;;;3.08;1.77;;;;;;;;;;5052343;28;20297;-62
2024/01/14 13:43:10;;;;;;;6.47;1.60;;;;;;;;;;5052625;28;20190;-62
2024/01/14 13:45:37;;;;;;;5.72;2.55;;;;;;;;;;5052477;28;20256;-62
2024/01/14 13:48:04;;;;;;;5.38;2.30;;;;;;;;;;5052265;28;20196;-62
2024/01/14 13:50:31;;;;;;;6.43;2.40;;;;;;;;;;5052674;28;20186;-63
2024/01/14 13:52:58;;;;;;;7.95;3.20;;;;;;;;;;5052615;28;20618;-62
2024/01/14 13:55:25;;;;;;;7.97;4.90;;;;;;;;;;5052467;28;20194;-62
2024/01/14 13:57:53;;;;;;;8.10;2.85;;;;;;;;;;5052401;28;20680;-62
2024/01/14 14:00:20;;;;;;;3.92;2.08;;;;;;;;;;5052364;28;20201;-62
2024/01/14 14:02:47;;;;;;;3.70;1.80;;;;;;;;;;5052242;28;20230;-62
2024/01/14 14:05:14;;;;;;;6.05;2.75;;;;;;;;;;5052477;28;20260;-62
2024/01/14 14:07:41;;;;;;;5.40;2.17;;;;;;;;;;5052401;28;20277;-62
2024/01/14 14:10:10;;;;;;;5.23;2.23;;;;;;;;;;5052369;28;20190;-62
2024/01/14 14:12:37;;;;;;;3.30;1.87;;;;;;;;;;5052309;28;20851;-62
2024/01/14 14:15:05;;;;;;;8.50;3.25;;;;;;;;;;5052221;28;20875;-62
2024/01/14 14:17:32;;;;;;;6.55;2.70;;;;;;;;;;5052171;28;20294;-62
2024/01/14 14:19:59;;;;;;;4.60;2.67;;;;;;;;;;5055077;28;20713;-63
2024/01/14 14:22:26;;;;;;;3.22;2.53;;;;;;;;;;5055965;28;20189;-62
2024/01/14 14:24:53;;;;;;;4.05;2.20;;;;;;;;;;5055988;28;20221;-62
2024/01/14 14:27:20;;;;;;;4.25;2.05;;;;;;;;;;5055720;28;20273;-62
2024/01/14 14:29:47;;;;;;;6.03;2.60;;;;;;;;;;5055672;28;20281;-63
2024/01/14 14:32:16;;;;;;;3.78;1.95;;;;;;;;;;5055883;28;20451;-62
2024/01/14 14:34:43;;;;;;;5.10;1.70;;;;;;;;;;5055717;28;20304;-62
2024/01/14 14:37:10;;;;;;;4.05;2.10;;;;;;;;;;5055743;28;20537;-63
2024/01/14 14:39:37;;;;;;;9.73;2.67;;;;;;;;;;5055596;28;20733;-63
2024/01/14 14:42:06;;;;;;;2.60;1.58;;;;;;;;;;5055446;28;20545;-62
2024/01/14 14:44:34;;;;;;;5.20;2.22;;;;;;;;;;5055298;28;20218;-62